Time;durP1;ratioP1;P1;durP2;ratioP2;P2;SDS_P1;SDS_P2;PMS_P1;PMS_P2;Temp;Humidity;BMP_temperature;BMP_pressure;BME280_temperature;BME280_humidity;BME280_pressure;Samples;Min_cycle;Max_cycle;Signal;HPM_P1;HPM_P2
2021/10/15 00:00:07;;;;;;;8.50;5.07;;;12.70;99.90;;;;;;5054388;28;20033;-71
2021/10/15 00:02:32;;;;;;;13.50;5.00;;;12.70;99.90;;;;;;5055269;28;20017;-71
2021/10/15 00:04:58;;;;;;;13.20;5.38;;;12.70;99.90;;;;;;5055489;28;20478;-71
2021/10/15 00:07:23;;;;;;;10.82;5.13;;;12.70;99.90;;;;;;5055388;28;20451;-71
2021/10/15 00:09:49;;;;;;;14.68;5.72;;;12.70;99.90;;;;;;5055356;28;20025;-71
2021/10/15 00:12:15;;;;;;;11.00;5.30;;;12.70;99.90;;;;;;5055037;28;20104;-71
2021/10/15 00:14:41;;;;;;;13.52;5.32;;;12.70;99.90;;;;;;5054083;28;20385;-71
2021/10/15 00:17:06;;;;;;;13.35;5.35;;;12.70;99.90;;;;;;5055132;28;20043;-71
2021/10/15 00:19:32;;;;;;;10.30;5.10;;;12.70;99.90;;;;;;5055183;28;20433;-71
2021/10/15 00:21:58;;;;;;;9.52;4.97;;;12.70;99.90;;;;;;5055139;28;20371;-71
2021/10/15 00:24:24;;;;;;;9.35;5.65;;;12.70;99.90;;;;;;5054768;28;20098;-71
2021/10/15 00:26:50;;;;;;;16.65;5.32;;;12.70;99.90;;;;;;5055029;28;20029;-71
2021/10/15 00:29:15;;;;;;;13.40;5.13;;;12.60;99.90;;;;;;5053534;28;20021;-71
2021/10/15 00:31:41;;;;;;;10.07;5.35;;;12.60;99.90;;;;;;5053480;28;20086;-71
2021/10/15 00:34:06;;;;;;;9.20;5.30;;;12.60;99.90;;;;;;5054860;28;20079;-71
2021/10/15 00:36:32;;;;;;;11.93;5.28;;;12.60;99.90;;;;;;5054844;28;20033;-71
2021/10/15 00:38:57;;;;;;;12.23;5.22;;;12.60;99.90;;;;;;5054092;28;20049;-71
2021/10/15 00:41:23;;;;;;;12.88;5.63;;;12.60;99.90;;;;;;5054816;28;20025;-71
2021/10/15 00:44:07;;;;;;;14.65;5.43;;;12.60;99.90;;;;;;5054451;28;20032;-71
2021/10/15 00:46:33;;;;;;;8.95;4.85;;;12.60;99.90;;;;;;5054401;28;20470;-71
2021/10/15 00:49:01;;;;;;;10.43;4.93;;;12.60;99.90;;;;;;5054153;28;20109;-71
2021/10/15 00:51:27;;;;;;;12.68;6.40;;;12.60;99.90;;;;;;5054572;28;20021;-71
2021/10/15 00:53:53;;;;;;;8.90;4.88;;;12.60;99.90;;;;;;5054261;28;20385;-71
2021/10/15 00:56:20;;;;;;;11.75;5.70;;;12.50;99.90;;;;;;5052743;28;20025;-71
2021/10/15 00:58:45;;;;;;;12.20;5.53;;;12.60;99.90;;;;;;5054401;28;20116;-71
2021/10/15 01:01:11;;;;;;;10.10;5.53;;;12.60;99.90;;;;;;5054425;28;20108;-71
2021/10/15 01:03:37;;;;;;;14.32;5.72;;;12.60;99.90;;;;;;5054376;28;20374;-71
2021/10/15 01:06:02;;;;;;;9.95;4.90;;;12.60;99.90;;;;;;5053759;28;20039;-71
2021/10/15 01:08:28;;;;;;;16.50;5.45;;;12.60;99.90;;;;;;5036466;28;20079;-71
2021/10/15 01:10:54;;;;;;;11.43;4.93;;;12.50;99.90;;;;;;5054254;28;20024;-71
2021/10/15 01:13:20;;;;;;;12.77;5.65;;;12.60;99.90;;;;;;5054255;28;20425;-71
2021/10/15 01:15:46;;;;;;;11.30;5.18;;;12.60;99.90;;;;;;5053909;28;20108;-71
2021/10/15 01:18:12;;;;;;;13.05;5.22;;;12.60;99.90;;;;;;5052628;28;20493;-71
2021/10/15 01:20:38;;;;;;;10.80;4.90;;;12.60;99.90;;;;;;5054139;28;20056;-71
2021/10/15 01:23:04;;;;;;;13.68;5.22;;;12.50;99.90;;;;;;5054092;28;20064;-71
2021/10/15 01:25:33;;;;;;;7.75;4.72;;;12.50;99.90;;;;;;5053801;28;20086;-71
2021/10/15 01:27:59;;;;;;;12.43;5.43;;;12.50;99.90;;;;;;5054017;28;20028;-71
2021/10/15 01:30:24;;;;;;;10.00;4.88;;;12.50;99.90;;;;;;5052570;28;20025;-71
2021/10/15 01:32:50;;;;;;;10.07;4.57;;;12.50;99.90;;;;;;5053713;28;20410;-70
2021/10/15 01:35:16;;;;;;;10.68;4.35;;;12.50;99.90;;;;;;5053686;28;20064;-71
2021/10/15 01:37:41;;;;;;;9.40;4.68;;;12.40;99.90;;;;;;5053220;28;20125;-71
2021/10/15 01:40:07;;;;;;;9.48;4.50;;;12.40;99.90;;;;;;5053621;28;20029;-71
2021/10/15 01:42:55;;;;;;;13.18;4.70;;;12.50;99.90;;;;;;5053866;28;20105;-71
2021/10/15 01:45:18;;;;;;;11.18;4.72;;;12.40;99.90;;;;;;5052191;28;20028;-71
2021/10/15 01:47:44;;;;;;;11.15;5.32;;;12.40;99.90;;;;;;5053837;28;20033;-71
2021/10/15 01:50:10;;;;;;;11.07;4.70;;;12.30;99.90;;;;;;5053572;28;20099;-71
2021/10/15 01:52:37;;;;;;;14.27;4.60;;;12.40;99.90;;;;;;5053774;28;20082;-71
2021/10/15 01:55:04;;;;;;;10.30;5.10;;;12.30;99.90;;;;;;5035649;28;20025;-71
2021/10/15 01:57:30;;;;;;;7.35;4.07;;;12.30;99.90;;;;;;5053683;28;20056;-71
2021/10/15 01:59:55;;;;;;;12.13;4.70;;;12.30;99.90;;;;;;5055613;28;20060;-71
2021/10/15 02:02:21;;;;;;;11.48;4.68;;;12.30;99.90;;;;;;5057740;28;20485;-71
2021/10/15 02:04:46;;;;;;;12.43;4.60;;;12.20;99.90;;;;;;5057715;28;20033;-71
2021/10/15 02:07:12;;;;;;;8.50;4.35;;;12.20;99.90;;;;;;5057649;28;20029;-71
2021/10/15 02:09:37;;;;;;;10.15;5.05;;;12.20;99.90;;;;;;5057627;28;20348;-71
2021/10/15 02:12:04;;;;;;;10.93;4.90;;;12.20;99.90;;;;;;5057838;28;20029;-71
2021/10/15 02:14:30;;;;;;;10.38;4.22;;;12.20;99.90;;;;;;5055711;28;20017;-71
2021/10/15 02:16:56;;;;;;;10.65;4.45;;;12.20;99.90;;;;;;5057503;28;20025;-71
2021/10/15 02:19:21;;;;;;;10.45;4.65;;;12.20;99.90;;;;;;5056830;28;20103;-71
2021/10/15 02:21:47;;;;;;;13.00;4.97;;;12.10;99.90;;;;;;5055608;28;20021;-71
2021/10/15 02:24:12;;;;;;;11.55;4.55;;;12.10;99.90;;;;;;5055665;28;20036;-71
2021/10/15 02:26:38;;;;;;;8.30;4.45;;;12.10;99.90;;;;;;5055899;28;20028;-71
2021/10/15 02:29:03;;;;;;;11.68;4.60;;;12.00;99.90;;;;;;5057022;28;20029;-71
2021/10/15 02:31:29;;;;;;;12.00;4.43;;;12.00;99.90;;;;;;5055469;28;20025;-71
2021/10/15 02:33:55;;;;;;;10.73;4.80;;;12.00;99.90;;;;;;5057202;28;20021;-71
2021/10/15 02:36:20;;;;;;;14.02;4.78;;;12.00;99.90;;;;;;5057156;28;20041;-72
2021/10/15 02:38:47;;;;;;;10.63;4.60;;;12.00;99.90;;;;;;5055048;28;20128;-71
2021/10/15 02:41:13;;;;;;;13.48;5.28;;;12.00;99.90;;;;;;5057080;28;20067;-71
2021/10/15 02:43:39;;;;;;;11.32;5.00;;;12.00;99.90;;;;;;5057037;28;20033;-71
2021/10/15 02:46:05;;;;;;;12.52;4.55;;;12.00;99.90;;;;;;5055981;28;20369;-71
2021/10/15 02:48:30;;;;;;;11.10;4.75;;;12.00;99.90;;;;;;5056220;28;20033;-71
2021/10/15 02:50:56;;;;;;;15.93;4.70;;;12.00;99.90;;;;;;5056853;28;20028;-71
2021/10/15 02:53:21;;;;;;;13.18;5.40;;;11.90;99.90;;;;;;5055664;28;20033;-71
2021/10/15 02:55:47;;;;;;;12.85;4.88;;;11.90;99.90;;;;;;5056495;28;20025;-71
2021/10/15 02:58:13;;;;;;;7.40;5.10;;;12.00;99.90;;;;;;5056381;28;20462;-71
2021/10/15 03:00:38;;;;;;;7.97;4.75;;;11.90;99.90;;;;;;5055273;28;20032;-71
2021/10/15 03:03:04;;;;;;;9.38;5.38;;;11.90;99.90;;;;;;5055199;28;20457;-71
2021/10/15 03:05:30;;;;;;;7.68;4.75;;;11.90;99.90;;;;;;5055201;28;20029;-70
2021/10/15 03:07:55;;;;;;;11.45;5.40;;;11.90;99.90;;;;;;5056309;28;20475;-71
2021/10/15 03:10:21;;;;;;;9.43;5.15;;;12.00;99.90;;;;;;5055977;28;20500;-71
2021/10/15 03:12:46;;;;;;;10.07;5.05;;;11.90;99.90;;;;;;5054668;28;20068;-71
2021/10/15 03:15:12;;;;;;;9.63;5.28;;;12.00;99.90;;;;;;5056397;28;20029;-71
2021/10/15 03:17:37;;;;;;;13.32;6.05;;;12.00;99.90;;;;;;5056317;28;20029;-71
2021/10/15 03:20:04;;;;;;;11.73;5.50;;;12.00;99.90;;;;;;5056039;28;20025;-71
2021/10/15 03:22:30;;;;;;;9.52;5.47;;;12.00;99.90;;;;;;5056328;28;20378;-71
2021/10/15 03:24:55;;;;;;;11.73;5.18;;;12.00;99.90;;;;;;5056215;28;20029;-71
2021/10/15 03:27:21;;;;;;;10.48;5.38;;;12.00;99.90;;;;;;5054409;28;20025;-71
2021/10/15 03:29:47;;;;;;;9.80;5.95;;;12.00;99.90;;;;;;5056166;28;20025;-71
2021/10/15 03:32:12;;;;;;;10.02;5.30;;;11.90;99.90;;;;;;5054279;28;20021;-71
2021/10/15 03:34:38;;;;;;;11.15;5.85;;;11.90;99.90;;;;;;5056107;28;20049;-71
2021/10/15 03:37:03;;;;;;;10.80;5.65;;;11.80;99.90;;;;;;5054210;28;20032;-71
2021/10/15 03:39:29;;;;;;;12.80;5.78;;;11.80;99.90;;;;;;5055183;28;20063;-71
2021/10/15 03:41:54;;;;;;;13.55;5.50;;;11.80;99.90;;;;;;5055890;28;20096;-71
2021/10/15 03:44:20;;;;;;;17.75;6.63;;;11.80;99.90;;;;;;5055868;28;20371;-71
2021/10/15 03:46:45;;;;;;;14.73;5.90;;;11.80;99.90;;;;;;5055520;28;20100;-71
2021/10/15 03:49:11;;;;;;;17.30;6.25;;;11.80;99.90;;;;;;5055766;28;20029;-71
2021/10/15 03:51:36;;;;;;;11.27;5.80;;;11.80;99.90;;;;;;5055746;28;20379;-71
2021/10/15 03:54:02;;;;;;;14.88;5.90;;;11.80;99.90;;;;;;5055414;28;20441;-71
2021/10/15 03:56:28;;;;;;;10.45;5.80;;;11.80;99.90;;;;;;5055630;28;20478;-71
2021/10/15 03:58:53;;;;;;;14.93;6.60;;;11.80;99.90;;;;;;5055243;28;20474;-71
2021/10/15 04:01:19;;;;;;;14.98;6.85;;;11.70;99.90;;;;;;5055579;28;20371;-71
2021/10/15 04:03:44;;;;;;;16.42;6.25;;;11.70;99.90;;;;;;5055227;28;20047;-71
2021/10/15 04:06:10;;;;;;;14.25;6.72;;;11.70;99.90;;;;;;5055445;28;20104;-71
2021/10/15 04:08:36;;;;;;;10.55;6.43;;;11.70;99.90;;;;;;5055389;28;20044;-71
2021/10/15 04:11:01;;;;;;;12.80;5.80;;;11.70;99.90;;;;;;5055360;28;20033;-71
2021/10/15 04:13:27;;;;;;;12.75;6.18;;;11.70;99.90;;;;;;5055339;28;20459;-72
2021/10/15 04:15:52;;;;;;;13.40;5.70;;;11.70;99.90;;;;;;5055266;28;20032;-71
2021/10/15 04:18:18;;;;;;;10.88;6.10;;;11.70;99.90;;;;;;5055164;28;20021;-71
2021/10/15 04:20:43;;;;;;;12.35;6.47;;;11.60;99.90;;;;;;5053772;28;20017;-71
2021/10/15 04:23:09;;;;;;;16.88;6.28;;;11.60;99.90;;;;;;5054032;28;20024;-71
2021/10/15 04:25:35;;;;;;;12.25;6.30;;;11.60;99.90;;;;;;5055124;28;20110;-71
2021/10/15 04:28:00;;;;;;;14.82;6.65;;;11.60;99.90;;;;;;5053617;28;20040;-67
2021/10/15 04:30:26;;;;;;;14.70;7.13;;;11.60;99.90;;;;;;5054420;28;20474;-67
2021/10/15 04:32:51;;;;;;;13.48;7.13;;;11.60;99.90;;;;;;5054681;28;20104;-67
2021/10/15 04:35:17;;;;;;;17.70;7.97;;;11.60;99.90;;;;;;5053469;28;20415;-66
2021/10/15 04:37:42;;;;;;;14.07;6.82;;;11.60;99.90;;;;;;5052809;28;20638;-66
2021/10/15 04:40:08;;;;;;;15.98;7.18;;;11.60;99.90;;;;;;5054538;28;20028;-66
2021/10/15 04:42:37;;;;;;;13.30;6.68;;;11.60;99.90;;;;;;5054485;28;20021;-66
2021/10/15 04:45:02;;;;;;;16.05;7.47;;;11.60;99.90;;;;;;5053265;28;20028;-66
2021/10/15 04:47:28;;;;;;;15.73;7.10;;;11.60;99.90;;;;;;5054140;28;20029;-67
2021/10/15 04:49:53;;;;;;;14.45;7.18;;;11.60;99.90;;;;;;5054352;28;20016;-66
2021/10/15 04:52:19;;;;;;;14.85;7.20;;;11.60;99.90;;;;;;5053352;28;20028;-67
2021/10/15 04:54:44;;;;;;;12.63;6.93;;;11.60;99.90;;;;;;5037008;28;20033;-67
2021/10/15 04:57:10;;;;;;;14.00;7.28;;;11.60;99.90;;;;;;5054222;28;20021;-67
2021/10/15 04:59:35;;;;;;;12.68;7.35;;;11.60;99.90;;;;;;5052651;28;20044;-67
2021/10/15 05:02:01;;;;;;;18.38;7.53;;;11.60;99.90;;;;;;5054411;28;20099;-67
2021/10/15 05:04:26;;;;;;;20.05;8.27;;;11.60;99.90;;;;;;5053252;28;20032;-67
2021/10/15 05:06:56;;;;;;;19.70;8.43;;;11.60;99.90;;;;;;5054349;28;20424;-67
2021/10/15 05:09:38;;;;;;;21.35;7.53;;;11.60;99.90;;;;;;5054307;28;20025;-67
2021/10/15 05:12:06;;;;;;;15.75;7.93;;;11.50;99.90;;;;;;5053713;28;20042;-67
2021/10/15 05:14:33;;;;;;;13.15;7.53;;;11.50;99.90;;;;;;5054215;28;20025;-67
2021/10/15 05:17:02;;;;;;;19.45;8.82;;;11.50;99.90;;;;;;5053673;28;20390;-67
2021/10/15 05:19:28;;;;;;;17.52;7.85;;;11.50;99.90;;;;;;5053829;28;20021;-67
2021/10/15 05:21:54;;;;;;;19.00;8.15;;;11.50;99.90;;;;;;5053871;28;20017;-67
2021/10/15 05:24:19;;;;;;;15.60;8.13;;;11.50;99.90;;;;;;5054109;28;20090;-66
2021/10/15 05:26:45;;;;;;;13.15;8.27;;;11.50;99.90;;;;;;5053770;28;20386;-67
2021/10/15 05:29:11;;;;;;;21.08;8.73;;;11.50;99.90;;;;;;5053630;28;20048;-67
2021/10/15 05:31:36;;;;;;;17.70;8.05;;;11.50;99.90;;;;;;5053986;28;20021;-66
2021/10/15 05:34:02;;;;;;;15.50;8.48;;;11.50;99.90;;;;;;5053794;28;20021;-66
2021/10/15 05:36:28;;;;;;;17.90;9.70;;;11.50;99.90;;;;;;5053922;28;20064;-67
2021/10/15 05:38:53;;;;;;;14.90;8.43;;;11.50;99.90;;;;;;5051969;28;20103;-67
2021/10/15 05:41:19;;;;;;;19.55;8.80;;;11.50;99.90;;;;;;5052464;28;20487;-67
2021/10/15 05:43:45;;;;;;;17.15;9.15;;;11.50;99.90;;;;;;5053603;28;20087;-67
2021/10/15 05:46:10;;;;;;;26.10;8.45;;;11.50;99.90;;;;;;5053825;28;20029;-66
2021/10/15 05:48:36;;;;;;;23.02;9.48;;;11.50;99.90;;;;;;5052856;28;20033;-66
2021/10/15 05:51:02;;;;;;;16.63;9.10;;;11.50;99.90;;;;;;5053792;28;20029;-67
2021/10/15 05:53:28;;;;;;;18.92;9.27;;;11.50;99.90;;;;;;5052333;28;20032;-67
2021/10/15 06:01:21;;;;;;;23.40;10.20;;;11.50;99.90;;;;;;5111180;28;20459;-67
2021/10/15 06:03:55;;;;;;;22.92;9.07;;;11.50;99.90;;;;;;5111570;28;20107;-67
2021/10/15 06:14:38;;;;;;;16.33;8.75;;;11.50;99.90;;;;;;5109948;28;20020;-67
2021/10/15 06:17:07;;;;;;;17.00;9.20;;;11.50;99.90;;;;;;5099410;28;20093;-67
2021/10/15 06:20:04;;;;;;;15.07;8.93;;;11.50;99.90;;;;;;5110814;28;20430;-68
2021/10/15 06:22:24;;;;;;;16.83;9.07;;;11.50;99.90;;;;;;5110569;28;20024;-67
2021/10/15 06:24:51;;;;;;;17.15;9.65;;;11.50;99.90;;;;;;5109821;28;20020;-67
2021/10/15 06:27:19;;;;;;;16.25;8.77;;;11.50;99.90;;;;;;5101184;28;20119;-67
2021/10/15 06:29:45;;;;;;;20.13;9.52;;;11.50;99.90;;;;;;5099218;28;20024;-67
2021/10/15 06:32:10;;;;;;;16.10;10.05;;;11.50;99.90;;;;;;5104744;28;20024;-67
2021/10/15 06:34:36;;;;;;;18.50;9.38;;;11.60;99.90;;;;;;5103708;28;20024;-67
2021/10/15 06:37:01;;;;;;;17.42;9.52;;;11.60;99.90;;;;;;5103377;28;20115;-67
2021/10/15 06:39:27;;;;;;;16.38;9.60;;;11.60;99.90;;;;;;5102178;28;20027;-67
2021/10/15 06:41:52;;;;;;;21.00;9.77;;;11.60;99.90;;;;;;5110475;28;20461;-67
2021/10/15 06:44:18;;;;;;;22.05;10.13;;;11.60;99.90;;;;;;5109614;28;20024;-67
2021/10/15 06:46:43;;;;;;;20.60;10.48;;;11.60;99.90;;;;;;5109151;28;20028;-67
2021/10/15 06:49:09;;;;;;;18.90;9.50;;;11.70;99.90;;;;;;5109304;28;20077;-67
2021/10/15 06:51:36;;;;;;;20.73;9.50;;;11.70;99.90;;;;;;5105392;28;20110;-67
2021/10/15 06:54:01;;;;;;;18.67;9.25;;;11.70;99.90;;;;;;5101040;28;20032;-66
2021/10/15 06:56:27;;;;;;;19.13;9.13;;;11.70;99.90;;;;;;5099170;28;20050;-66
2021/10/15 06:58:53;;;;;;;22.50;9.45;;;11.70;99.90;;;;;;5104452;28;20028;-67
2021/10/15 07:01:18;;;;;;;17.30;9.20;;;11.80;99.90;;;;;;5101638;28;20024;-66
2021/10/15 07:03:44;;;;;;;18.13;9.35;;;11.70;99.90;;;;;;5098539;28;20380;-67
2021/10/15 07:06:09;;;;;;;17.98;9.30;;;11.80;99.90;;;;;;5106861;28;20458;-66
2021/10/15 07:08:35;;;;;;;17.50;9.75;;;11.80;99.90;;;;;;5104487;28;20086;-66
2021/10/15 07:11:00;;;;;;;16.45;8.75;;;11.80;99.90;;;;;;5087799;28;20110;-66
2021/10/15 07:13:26;;;;;;;16.50;9.43;;;11.80;99.90;;;;;;5100827;28;20102;-67
2021/10/15 07:15:51;;;;;;;15.40;8.88;;;11.80;99.90;;;;;;5097048;28;20047;-67
2021/10/15 07:18:17;;;;;;;18.08;9.02;;;11.90;99.90;;;;;;5095458;28;20032;-66
2021/10/15 07:20:43;;;;;;;23.00;9.48;;;11.90;99.90;;;;;;5095174;28;20036;-67
2021/10/15 07:23:12;;;;;;;25.67;9.93;;;11.90;99.90;;;;;;5094905;28;20027;-67
2021/10/15 07:25:38;;;;;;;20.70;9.35;;;11.90;99.90;;;;;;5095973;28;20032;-66
2021/10/15 07:28:05;;;;;;;17.35;9.45;;;11.90;99.90;;;;;;5085070;28;20028;-67
2021/10/15 07:30:31;;;;;;;17.08;9.48;;;11.90;99.90;;;;;;5084742;28;20120;-66
2021/10/15 07:32:56;;;;;;;16.60;9.27;;;11.90;99.90;;;;;;5087549;28;20111;-67
2021/10/15 07:35:22;;;;;;;17.98;9.57;;;11.90;99.90;;;;;;5085913;28;20063;-66
2021/10/15 07:37:47;;;;;;;16.17;8.35;;;11.90;99.90;;;;;;5092219;28;20524;-67
2021/10/15 07:40:13;;;;;;;20.60;9.18;;;11.90;99.90;;;;;;5086359;28;20020;-67
2021/10/15 07:42:39;;;;;;;17.52;9.60;;;11.90;99.90;;;;;;5082900;28;20031;-67
2021/10/15 07:45:05;;;;;;;19.20;9.10;;;11.90;99.90;;;;;;5076759;28;20016;-68
2021/10/15 07:47:30;;;;;;;18.88;10.43;;;11.90;99.90;;;;;;5084987;28;20055;-67
2021/10/15 07:49:56;;;;;;;14.68;8.57;;;11.90;99.90;;;;;;5090335;28;20467;-66
2021/10/15 07:52:22;;;;;;;17.70;9.77;;;11.90;99.90;;;;;;5094114;28;20447;-67
2021/10/15 07:54:48;;;;;;;20.23;9.40;;;12.10;99.90;;;;;;5081931;28;20028;-67
2021/10/15 07:57:13;;;;;;;22.58;10.05;;;12.10;99.90;;;;;;5095114;28;20401;-67
2021/10/15 07:59:40;;;;;;;18.48;9.85;;;12.10;99.90;;;;;;5093462;28;20470;-68
2021/10/15 08:02:06;;;;;;;16.30;10.07;;;12.10;99.90;;;;;;5095032;28;20028;-67
2021/10/15 08:04:32;;;;;;;15.23;9.60;;;12.10;99.90;;;;;;5093571;28;20023;-67
2021/10/15 08:06:57;;;;;;;23.65;10.90;;;12.10;99.90;;;;;;5095117;28;20024;-67
2021/10/15 08:09:23;;;;;;;17.58;9.48;;;12.00;99.90;;;;;;5094964;28;20103;-67
2021/10/15 08:11:49;;;;;;;15.00;9.32;;;12.00;99.90;;;;;;5060152;28;20119;-68
2021/10/15 08:14:14;;;;;;;15.70;9.30;;;12.10;99.90;;;;;;5094616;28;20020;-68
2021/10/15 08:16:40;;;;;;;19.48;10.18;;;12.10;99.90;;;;;;5094652;28;20028;-68
2021/10/15 08:19:06;;;;;;;18.02;9.27;;;12.10;99.90;;;;;;5076744;28;20103;-67
2021/10/15 08:21:31;;;;;;;19.77;9.57;;;12.20;99.90;;;;;;5093646;28;20032;-68
2021/10/15 08:23:57;;;;;;;16.15;9.73;;;12.20;99.90;;;;;;5092969;28;20609;-68
2021/10/15 08:26:22;;;;;;;19.50;10.00;;;12.20;99.90;;;;;;5106517;28;20028;-67
2021/10/15 08:28:48;;;;;;;21.38;10.18;;;12.20;99.90;;;;;;5099152;28;20040;-68
2021/10/15 08:31:16;;;;;;;21.80;11.02;;;12.20;99.90;;;;;;5090622;28;20021;-68
2021/10/15 08:33:41;;;;;;;27.42;11.60;;;12.20;99.90;;;;;;5089317;28;20093;-67
2021/10/15 08:36:07;;;;;;;22.38;12.57;;;12.10;99.90;;;;;;5078974;28;20020;-68
2021/10/15 08:38:33;;;;;;;28.23;13.45;;;12.00;99.90;;;;;;5094282;28;20032;-67
2021/10/15 08:40:58;;;;;;;34.40;14.15;;;11.80;99.90;;;;;;5093989;28;20473;-68
2021/10/15 08:43:33;;;;;;;29.10;15.07;;;11.70;99.90;;;;;;5083659;28;20028;-67
2021/10/15 08:45:59;;;;;;;30.67;17.17;;;11.60;99.90;;;;;;5086139;28;20458;-68
2021/10/15 08:48:24;;;;;;;31.13;17.25;;;11.50;99.90;;;;;;5091946;28;20071;-67
2021/10/15 08:50:51;;;;;;;32.33;19.67;;;11.50;99.90;;;;;;5093540;28;20066;-66
2021/10/15 08:53:16;;;;;;;40.40;20.25;;;11.40;99.90;;;;;;5108107;27;20025;-67
2021/10/15 08:55:43;;;;;;;40.20;20.45;;;11.40;99.90;;;;;;5083469;28;20069;-67
2021/10/15 08:58:08;;;;;;;36.65;21.63;;;11.40;99.90;;;;;;5091827;28;20051;-67
2021/10/15 09:00:36;;;;;;;41.90;22.30;;;11.40;99.90;;;;;;5093492;28;20039;-67
2021/10/15 09:03:23;;;;;;;37.05;22.60;;;11.40;99.90;;;;;;5087014;28;20026;-67
2021/10/15 09:06:07;;;;;;;39.20;22.45;;;11.40;99.90;;;;;;5094059;28;20038;-67
2021/10/15 09:08:49;;;;;;;39.15;23.73;;;11.40;99.90;;;;;;5088974;28;20056;-67
2021/10/15 09:11:38;;;;;;;38.93;24.30;;;11.40;99.90;;;;;;5094091;28;20065;-67
2021/10/15 09:14:14;;;;;;;43.33;26.13;;;11.40;99.90;;;;;;5092538;28;20266;-66
2021/10/15 09:17:19;;;;;;;43.35;28.65;;;11.50;99.90;;;;;;5089376;28;20020;-68
2021/10/15 09:19:50;;;;;;;47.28;30.27;;;11.50;99.90;;;;;;5087678;28;20024;-66
2021/10/15 09:22:20;;;;;;;45.45;31.83;;;11.50;99.90;;;;;;5086859;28;20013;-66
2021/10/15 09:25:12;;;;;;;42.30;30.25;;;11.60;99.90;;;;;;5093482;28;20442;-66
2021/10/15 09:27:39;;;;;;;47.58;30.23;;;11.50;99.90;;;;;;5085641;28;20413;-66
2021/10/15 09:30:16;;;;;;;43.83;28.67;;;11.60;99.90;;;;;;5092635;28;20020;-66
2021/10/15 09:32:44;;;;;;;43.47;27.92;;;11.70;99.90;;;;;;5072048;28;20032;-67
2021/10/15 09:35:12;;;;;;;37.20;26.70;;;11.70;99.90;;;;;;5074911;28;20035;-67
2021/10/15 09:37:41;;;;;;;38.85;25.50;;;11.80;99.90;;;;;;5093287;28;20028;-67
2021/10/15 09:42:50;;;;;;;36.55;25.65;;;11.90;99.90;;;;;;5070724;28;20350;-67
2021/10/15 09:45:18;;;;;;;38.25;24.70;;;12.00;99.90;;;;;;5069650;28;20032;-68
2021/10/15 09:47:49;;;;;;;59.05;35.53;;;12.00;99.90;;;;;;5058406;28;20020;-67
2021/10/15 09:50:17;;;;;;;36.38;23.20;;;12.10;99.90;;;;;;5065216;28;20044;-67
2021/10/15 09:52:46;;;;;;;30.88;21.05;;;12.10;99.90;;;;;;5070076;28;20036;-67
2021/10/15 09:55:19;;;;;;;33.47;20.77;;;12.10;99.90;;;;;;5066888;28;20711;-67
2021/10/15 09:57:49;;;;;;;30.75;21.23;;;12.10;99.90;;;;;;5068726;28;20024;-68
2021/10/15 10:00:18;;;;;;;35.13;23.80;;;12.10;99.90;;;;;;5050360;28;20021;-68
2021/10/15 10:02:44;;;;;;;32.53;21.30;;;12.20;99.90;;;;;;5062807;28;20024;-67
2021/10/15 10:05:13;;;;;;;29.58;20.98;;;12.20;99.90;;;;;;5065891;28;20072;-67
2021/10/15 10:07:41;;;;;;;25.80;19.42;;;12.20;99.90;;;;;;5057376;28;20031;-67
2021/10/15 10:10:09;;;;;;;28.30;19.23;;;12.30;99.90;;;;;;5069992;28;20028;-68
2021/10/15 10:12:36;;;;;;;25.65;18.65;;;12.40;99.90;;;;;;5069102;28;20021;-67
2021/10/15 10:15:04;;;;;;;24.67;18.13;;;12.60;99.90;;;;;;5069637;28;20070;-68
2021/10/15 10:17:32;;;;;;;25.25;17.08;;;12.70;99.90;;;;;;5066674;28;20024;-67
2021/10/15 10:20:03;;;;;;;20.88;15.52;;;12.90;99.90;;;;;;5067391;28;20073;-68
2021/10/15 10:22:31;;;;;;;18.25;14.45;;;12.90;99.90;;;;;;5059468;28;20024;-68
2021/10/15 10:24:58;;;;;;;24.00;15.18;;;12.90;99.90;;;;;;5068565;28;20150;-68
2021/10/15 10:27:26;;;;;;;21.23;13.65;;;13.00;99.90;;;;;;5069566;28;20371;-67
2021/10/15 10:29:54;;;;;;;17.08;12.55;;;13.10;99.90;;;;;;5065512;28;20027;-68
2021/10/15 10:32:20;;;;;;;17.55;11.05;;;13.00;99.90;;;;;;5069433;28;20466;-68
2021/10/15 10:34:46;;;;;;;14.25;10.35;;;12.90;99.90;;;;;;5069770;28;20095;-68
2021/10/15 10:37:13;;;;;;;7.80;6.45;;;12.90;99.90;;;;;;5069619;28;20021;-68
2021/10/15 10:39:39;;;;;;;7.57;5.32;;;12.80;99.90;;;;;;5051429;28;20409;-68
2021/10/15 10:42:09;;;;;;;7.93;5.60;;;12.60;99.90;;;;;;5069365;28;20120;-67
2021/10/15 10:44:37;;;;;;;9.38;6.47;;;12.50;99.90;;;;;;5058646;28;20021;-67
2021/10/15 10:47:10;;;;;;;6.75;5.30;;;12.40;99.90;;;;;;5069408;28;20017;-67
2021/10/15 10:49:36;;;;;;;6.03;4.75;;;12.40;99.90;;;;;;5053671;28;20076;-68
2021/10/15 10:52:10;;;;;;;5.68;3.33;;;12.20;99.90;;;;;;5063141;28;20020;-67
2021/10/15 10:54:36;;;;;;;4.45;2.60;;;12.20;99.90;;;;;;5055219;28;20108;-67
2021/10/15 10:57:23;;;;;;;4.88;1.20;;;12.20;99.90;;;;;;5053295;28;20059;-67
2021/10/15 10:59:51;;;;;;;1.60;0.90;;;12.20;99.90;;;;;;5051426;28;20501;-67
2021/10/15 11:02:20;;;;;;;3.17;0.80;;;12.20;99.90;;;;;;5035996;28;20061;-68
2021/10/15 11:07:25;;;;;;;2.05;0.80;;;12.30;99.90;;;;;;5108437;27;20315;-67
2021/10/15 11:10:02;;;;;;;3.08;1.00;;;12.50;99.90;;;;;;5090693;28;20021;-68
2021/10/15 11:15:10;;;;;;;2.85;1.00;;;12.60;99.90;;;;;;5172814;27;20315;-69
2021/10/15 11:17:45;;;;;;;2.00;0.95;;;12.90;99.90;;;;;;5151794;27;20027;-68
2021/10/15 11:20:18;;;;;;;2.53;0.82;;;13.40;99.90;;;;;;5130687;27;20399;-68
2021/10/15 11:23:04;;;;;;;1.88;1.00;;;13.70;99.90;;;;;;5152510;27;20026;-68
2021/10/15 11:25:34;;;;;;;1.92;0.90;;;13.90;99.90;;;;;;5151907;27;20019;-68
2021/10/15 11:28:04;;;;;;;2.50;1.00;;;14.20;99.90;;;;;;5149673;27;20114;-68
2021/10/15 11:30:34;;;;;;;3.70;1.10;;;14.20;99.90;;;;;;5150863;27;20019;-66
2021/10/15 11:33:00;;;;;;;3.22;0.82;;;14.40;99.90;;;;;;5151333;27;20027;-68
2021/10/15 11:35:32;;;;;;;3.50;1.10;;;14.40;99.90;;;;;;5151900;27;20479;-68
2021/10/15 11:40:42;;;;;;;5.15;1.27;;;14.60;99.90;;;;;;5111197;27;20366;-68
2021/10/15 11:43:14;;;;;;;4.10;1.02;;;14.70;99.90;;;;;;5106764;28;20024;-68
2021/10/15 11:45:43;;;;;;;5.25;1.55;;;14.80;99.90;;;;;;5111144;28;20473;-69
2021/10/15 11:48:15;;;;;;;1.20;0.80;;;14.90;99.90;;;;;;5111011;28;20034;-69
2021/10/15 11:50:50;;;;;;;2.47;1.05;;;14.90;99.90;;;;;;5104262;28;20111;-69
2021/10/15 11:53:18;;;;;;;3.28;1.08;;;15.10;99.90;;;;;;5105345;28;20069;-69
2021/10/15 11:55:45;;;;;;;3.30;1.08;;;15.10;99.90;;;;;;5109450;28;20111;-68
2021/10/15 11:58:29;;;;;;;5.80;1.35;;;15.10;99.90;;;;;;5120682;28;20024;-68
2021/10/15 12:01:05;;;;;;;4.57;1.02;;;15.30;99.90;;;;;;5114111;28;20068;-69
2021/10/15 12:03:54;;;;;;;5.53;1.30;;;15.30;99.90;;;;;;5126799;28;20114;-69
2021/10/15 12:06:41;;;;;;;4.97;1.15;;;15.20;99.90;;;;;;5109757;28;20067;-68
2021/10/15 12:09:23;;;;;;;6.53;1.13;;;15.20;99.90;;;;;;5110088;28;20388;-68
2021/10/15 12:11:53;;;;;;;7.82;1.42;;;15.50;99.90;;;;;;5104624;28;20034;-68
2021/10/15 12:14:38;;;;;;;6.80;2.42;;;15.30;99.90;;;;;;5109422;28;20038;-68
2021/10/15 12:17:06;;;;;;;5.78;1.23;;;15.30;99.90;;;;;;5110535;28;20048;-69
2021/10/15 12:19:48;;;;;;;5.50;1.17;;;15.30;99.90;;;;;;5113542;28;20038;-68
2021/10/15 12:22:17;;;;;;;6.15;1.63;;;14.90;99.90;;;;;;5127495;28;20561;-68
2021/10/15 12:24:46;;;;;;;6.93;1.60;;;15.00;99.90;;;;;;5109292;28;20051;-69
2021/10/15 12:27:24;;;;;;;7.97;1.55;;;15.30;99.90;;;;;;5110263;28;20024;-68
2021/10/15 12:30:00;;;;;;;8.07;1.88;;;15.20;99.90;;;;;;5110072;28;20036;-68
2021/10/15 12:32:35;;;;;;;9.00;1.85;;;15.30;99.90;;;;;;5109883;28;20032;-68
2021/10/15 12:40:43;;;;;;;8.65;1.20;;;15.20;99.90;;;;;;5070604;28;20407;-68
2021/10/15 12:43:15;;;;;;;3.45;1.20;;;15.90;99.90;;;;;;5055173;28;20044;-66
2021/10/15 12:45:55;;;;;;;8.07;1.70;;;16.20;99.90;;;;;;5070303;28;20017;-68
2021/10/15 12:48:32;;;;;;;7.03;1.67;;;16.20;99.90;;;;;;5070516;28;20262;-67
2021/10/15 12:51:15;;;;;;;8.52;2.38;;;16.10;99.90;;;;;;5070409;28;20028;-68
2021/10/15 12:53:43;;;;;;;4.70;1.25;;;16.00;99.90;;;;;;5070292;28;20397;-68
2021/10/15 12:56:22;;;;;;;3.83;1.38;;;16.00;99.90;;;;;;5070727;28;20021;-68
2021/10/15 12:58:52;;;;;;;9.20;1.23;;;15.90;99.90;;;;;;5049821;28;20029;-69
2021/10/15 13:01:24;;;;;;;8.98;1.42;;;15.90;99.90;;;;;;5064440;28;20028;-68
2021/10/15 13:03:51;;;;;;;7.90;1.40;;;15.60;99.90;;;;;;5068906;28;20043;-68
2021/10/15 13:06:17;;;;;;;5.20;1.33;;;15.40;99.90;;;;;;5070074;28;20485;-68
2021/10/15 13:08:54;;;;;;;8.50;1.75;;;15.40;99.90;;;;;;5070194;28;20037;-68
2021/10/15 13:11:22;;;;;;;5.13;1.50;;;15.10;99.90;;;;;;5068686;28;20020;-68